SVR135E ULLI-UUDD
Flight info
| Callsign | SVR135E |
|---|---|
| Flight time | N/A |
| Altitude | 34000 |
| Route | ULLI/28R K0833F340 SUGI1A SUGIN T873 NIRGI T73 DESUD P164 IBOGI T287 ESOLO ESOL3N UUDD/32R |
| Aircraft | A20N/M-V/N |
Departure
| Time | 2026-05-05 18:20 |
|---|---|
| Airport | Pulkovo Airport (ULLI) |
Arrival
| Time | N/A |
|---|---|
| Airport | Domodedovo International Airport (UUDD) |
| Time | Latitude | Longitude | Altitude | Speed | Heading |
|---|---|---|---|---|---|
| 2026-05-05 17:56 | 59.80099 | 30.26864 | 75 ft | 0 kts | 96° |
| 2026-05-05 18:11 | 59.80101 | 30.26835 | 65 ft | 2 kts | 96° |
| 2026-05-05 18:11 | 59.80102 | 30.26804 | 65 ft | 2 kts | 96° |
| 2026-05-05 18:11 | 59.80104 | 30.26773 | 68 ft | 2 kts | 96° |
| 2026-05-05 18:11 | 59.80105 | 30.26742 | 68 ft | 2 kts | 84° |
| 2026-05-05 18:12 | 59.80102 | 30.26711 | 67 ft | 2 kts | 68° |
| 2026-05-05 18:12 | 59.80095 | 30.26689 | 64 ft | 0 kts | 18° |
| 2026-05-05 18:14 | 59.80106 | 30.26696 | 69 ft | 5 kts | 18° |
| 2026-05-05 18:14 | 59.80166 | 30.26734 | 74 ft | 12 kts | 17° |
| 2026-05-05 18:14 | 59.80267 | 30.26795 | 73 ft | 17 kts | 17° |
| 2026-05-05 18:15 | 59.80367 | 30.26852 | 67 ft | 12 kts | 21° |
| 2026-05-05 18:15 | 59.80381 | 30.26943 | 69 ft | 8 kts | 97° |
| 2026-05-05 18:15 | 59.80368 | 30.27068 | 70 ft | 11 kts | 106° |
| 2026-05-05 18:15 | 59.80344 | 30.27235 | 65 ft | 14 kts | 106° |
| 2026-05-05 18:16 | 59.80312 | 30.27448 | 68 ft | 17 kts | 106° |
| 2026-05-05 18:16 | 59.80275 | 30.27695 | 70 ft | 20 kts | 107° |
| 2026-05-05 18:16 | 59.80232 | 30.27972 | 70 ft | 22 kts | 107° |
| 2026-05-05 18:16 | 59.80186 | 30.28288 | 66 ft | 24 kts | 108° |
| 2026-05-05 18:17 | 59.80135 | 30.28621 | 74 ft | 26 kts | 106° |
| 2026-05-05 18:17 | 59.80081 | 30.28979 | 71 ft | 28 kts | 106° |
| 2026-05-05 18:17 | 59.80025 | 30.29359 | 69 ft | 30 kts | 106° |
| 2026-05-05 18:17 | 59.79971 | 30.29734 | 67 ft | 21 kts | 105° |
| 2026-05-05 18:18 | 59.79958 | 30.30030 | 67 ft | 22 kts | 67° |
| 2026-05-05 18:18 | 59.80069 | 30.30251 | 70 ft | 22 kts | 16° |
| 2026-05-05 18:18 | 59.80148 | 30.30077 | 66 ft | 17 kts | 287° |
| 2026-05-05 18:18 | 59.80151 | 30.30058 | 67 ft | 0 kts | 286° |
| 2026-05-05 18:19 | 59.80151 | 30.30057 | 67 ft | 1 kts | 286° |
| 2026-05-05 18:19 | 59.80206 | 30.29690 | 69 ft | 65 kts | 287° |
| 2026-05-05 18:19 | 59.80399 | 30.28405 | 67 ft | 126 kts | 287° |
| 2026-05-05 18:20 | 59.80689 | 30.26458 | 259 ft | 157 kts | 286° |
| 2026-05-05 18:20 | 59.80895 | 30.25084 | 662 ft | 156 kts | 286° |
| 2026-05-05 18:20 | 59.81224 | 30.23063 | 1411 ft | 156 kts | 288° |
| 2026-05-05 18:20 | 59.81525 | 30.20962 | 2152 ft | 159 kts | 285° |
| 2026-05-05 18:21 | 59.81837 | 30.18745 | 2613 ft | 175 kts | 286° |
| 2026-05-05 18:21 | 59.82206 | 30.16235 | 2993 ft | 194 kts | 285° |
| 2026-05-05 18:21 | 59.82258 | 30.15884 | 3028 ft | 197 kts | 285° |
| 2026-05-05 18:21 | 59.82265 | 30.15837 | 3032 ft | 197 kts | 285° |
| 2026-05-05 18:22 | 59.82278 | 30.15749 | 3038 ft | 198 kts | 285° |
| 2026-05-05 18:22 | 59.82568 | 30.13809 | 3308 ft | 211 kts | 284° |
| 2026-05-05 18:22 | 59.82995 | 30.10912 | 3298 ft | 242 kts | 284° |
| 2026-05-05 18:23 | 59.83490 | 30.07523 | 3283 ft | 267 kts | 284° |
| 2026-05-05 18:23 | 59.83816 | 30.03776 | 3283 ft | 286 kts | 268° |
| 2026-05-05 18:23 | 59.83313 | 29.99877 | 3279 ft | 285 kts | 245° |
| 2026-05-05 18:23 | 59.82113 | 29.96963 | 3280 ft | 266 kts | 223° |
| 2026-05-05 18:24 | 59.80534 | 29.95287 | 3289 ft | 250 kts | 203° |
| 2026-05-05 18:24 | 59.78933 | 29.94422 | 3304 ft | 230 kts | 202° |
| 2026-05-05 18:24 | 59.77446 | 29.93581 | 3387 ft | 233 kts | 203° |
| 2026-05-05 18:24 | 59.76584 | 29.93074 | 3769 ft | 232 kts | 203° |
| 2026-05-05 18:25 | 59.75170 | 29.92673 | 4874 ft | 229 kts | 181° |
| 2026-05-05 18:25 | 59.74143 | 29.93167 | 5705 ft | 233 kts | 164° |
| 2026-05-05 18:25 | 59.72535 | 29.95942 | 6817 ft | 261 kts | 127° |
| 2026-05-05 18:25 | 59.71842 | 29.99423 | 7573 ft | 278 kts | 112° |
| 2026-05-05 18:26 | 59.71349 | 30.03129 | 8338 ft | 286 kts | 110° |
| 2026-05-05 18:26 | 59.70997 | 30.05991 | 8985 ft | 289 kts | 110° |
| 2026-05-05 18:26 | 59.70715 | 30.08222 | 9480 ft | 291 kts | 111° |
| 2026-05-05 18:26 | 59.70521 | 30.09708 | 9768 ft | 295 kts | 111° |
| 2026-05-05 18:27 | 59.70332 | 30.11113 | 9921 ft | 302 kts | 111° |
| 2026-05-05 18:27 | 59.70268 | 30.11579 | 9959 ft | 305 kts | 111° |
| 2026-05-05 18:27 | 59.70016 | 30.13377 | 10124 ft | 316 kts | 111° |
| 2026-05-05 18:27 | 59.69663 | 30.16482 | 10375 ft | 337 kts | 103° |
| 2026-05-05 18:28 | 59.69529 | 30.20781 | 10660 ft | 362 kts | 95° |